sensor_id;sensor_type;location;lat;lon;timestamp;pressure;altitude;pressure_sealevel;temperature;humidity
59391;BME280;53405;57.012;40.984;2022-09-12T00:00:26;100582.16;;;9.36;73.46
59391;BME280;53405;57.012;40.984;2022-09-12T00:03:14;100580.84;;;9.32;73.40
59391;BME280;53405;57.012;40.984;2022-09-12T00:06:16;100565.31;;;9.20;73.71
59391;BME280;53405;57.012;40.984;2022-09-12T00:09:10;100581.31;;;9.27;74.05
59391;BME280;53405;57.012;40.984;2022-09-12T00:11:58;100573.72;;;9.24;73.91
59391;BME280;53405;57.012;40.984;2022-09-12T00:14:46;100582.06;;;9.19;74.30
59391;BME280;53405;57.012;40.984;2022-09-12T00:17:34;100584.00;;;9.17;74.46
59391;BME280;53405;57.012;40.984;2022-09-12T00:20:23;100580.22;;;9.12;74.71
59391;BME280;53405;57.012;40.984;2022-09-12T00:23:10;100574.59;;;9.07;74.53
59391;BME280;53405;57.012;40.984;2022-09-12T00:25:58;100576.22;;;9.08;74.69
59391;BME280;53405;57.012;40.984;2022-09-12T00:28:45;100569.97;;;9.00;74.70
59391;BME280;53405;57.012;40.984;2022-09-12T00:31:33;100570.25;;;8.97;74.87
59391;BME280;53405;57.012;40.984;2022-09-12T00:34:21;100572.03;;;8.97;74.81
59391;BME280;53405;57.012;40.984;2022-09-12T00:37:08;100572.66;;;8.91;74.97
59391;BME280;53405;57.012;40.984;2022-09-12T00:39:56;100569.22;;;8.90;74.83
59391;BME280;53405;57.012;40.984;2022-09-12T00:42:44;100561.94;;;8.84;75.12
59391;BME280;53405;57.012;40.984;2022-09-12T00:45:31;100569.59;;;8.77;75.15
59391;BME280;53405;57.012;40.984;2022-09-12T00:48:32;100565.78;;;8.72;75.27
59391;BME280;53405;57.012;40.984;2022-09-12T00:51:22;100565.41;;;8.66;75.37
59391;BME280;53405;57.012;40.984;2022-09-12T00:54:11;100566.53;;;8.64;75.54
59391;BME280;53405;57.012;40.984;2022-09-12T00:57:04;100570.44;;;8.60;75.68
59391;BME280;53405;57.012;40.984;2022-09-12T00:59:57;100553.94;;;8.49;75.79
59391;BME280;53405;57.012;40.984;2022-09-12T01:02:48;100559.19;;;8.49;75.78
59391;BME280;53405;57.012;40.984;2022-09-12T01:05:40;100543.13;;;8.35;75.83
59391;BME280;53405;57.012;40.984;2022-09-12T01:08:32;100561.34;;;8.36;76.38
59391;BME280;53405;57.012;40.984;2022-09-12T01:11:21;100567.94;;;8.40;76.18
59391;BME280;53405;57.012;40.984;2022-09-12T01:14:09;100567.03;;;8.31;76.11
59391;BME280;53405;57.012;40.984;2022-09-12T01:16:57;100566.53;;;8.28;76.47
59391;BME280;53405;57.012;40.984;2022-09-12T01:39:04;100561.59;;;7.97;77.66
59391;BME280;53405;57.012;40.984;2022-09-12T01:49:14;100558.34;;;7.85;78.50
59391;BME280;53405;57.012;40.984;2022-09-12T01:52:13;100547.09;;;7.75;78.61
59391;BME280;53405;57.012;40.984;2022-09-12T01:55:20;100555.63;;;7.77;78.50
59391;BME280;53405;57.012;40.984;2022-09-12T01:58:49;100555.63;;;7.77;78.64
59391;BME280;53405;57.012;40.984;2022-09-12T02:01:41;100546.31;;;7.65;78.40
59391;BME280;53405;57.012;40.984;2022-09-12T02:04:41;100550.84;;;7.63;78.48
59391;BME280;53405;57.012;40.984;2022-09-12T02:11:09;100549.22;;;7.62;78.49
59391;BME280;53405;57.012;40.984;2022-09-12T02:14:20;100549.09;;;7.53;78.50
59391;BME280;53405;57.012;40.984;2022-09-12T02:17:13;100553.16;;;7.48;79.05
59391;BME280;53405;57.012;40.984;2022-09-12T02:20:11;100552.84;;;7.51;78.64
59391;BME280;53405;57.012;40.984;2022-09-12T02:23:10;100551.63;;;7.45;78.75
59391;BME280;53405;57.012;40.984;2022-09-12T02:26:30;100528.94;;;7.26;79.04
59391;BME280;53405;57.012;40.984;2022-09-12T02:29:15;100554.28;;;7.35;79.21
59391;BME280;53405;57.012;40.984;2022-09-12T02:41:06;100560.50;;;7.24;79.88
59391;BME280;53405;57.012;40.984;2022-09-12T02:43:54;100561.91;;;7.29;79.79
59391;BME280;53405;57.012;40.984;2022-09-12T02:46:48;100555.13;;;7.26;79.74
59391;BME280;53405;57.012;40.984;2022-09-12T02:49:37;100559.84;;;7.22;79.69
59391;BME280;53405;57.012;40.984;2022-09-12T02:52:26;100563.69;;;7.18;79.80
59391;BME280;53405;57.012;40.984;2022-09-12T02:55:15;100552.00;;;7.13;79.82
59391;BME280;53405;57.012;40.984;2022-09-12T02:58:06;100562.88;;;7.18;80.09
59391;BME280;53405;57.012;40.984;2022-09-12T03:04:46;100553.38;;;7.17;80.31
59391;BME280;53405;57.012;40.984;2022-09-12T03:11:25;100562.03;;;7.27;79.77
59391;BME280;53405;57.012;40.984;2022-09-12T03:14:34;100557.09;;;7.24;79.94
59391;BME280;53405;57.012;40.984;2022-09-12T03:23:35;100559.09;;;7.40;79.48
59391;BME280;53405;57.012;40.984;2022-09-12T03:26:29;100561.28;;;7.45;79.41
59391;BME280;53405;57.012;40.984;2022-09-12T03:29:20;100568.03;;;7.47;79.13
59391;BME280;53405;57.012;40.984;2022-09-12T03:32:09;100571.34;;;7.49;79.24
59391;BME280;53405;57.012;40.984;2022-09-12T03:34:57;100566.63;;;7.53;79.15
59391;BME280;53405;57.012;40.984;2022-09-12T03:37:46;100571.59;;;7.56;78.91
59391;BME280;53405;57.012;40.984;2022-09-12T03:40:35;100561.63;;;7.59;79.03
59391;BME280;53405;57.012;40.984;2022-09-12T03:43:22;100564.66;;;7.65;78.48
59391;BME280;53405;57.012;40.984;2022-09-12T03:46:10;100563.25;;;7.70;78.42
59391;BME280;53405;57.012;40.984;2022-09-12T03:48:58;100564.75;;;7.73;78.17
59391;BME280;53405;57.012;40.984;2022-09-12T03:51:45;100572.88;;;7.80;78.25
59391;BME280;53405;57.012;40.984;2022-09-12T03:54:33;100575.34;;;7.81;77.42
59391;BME280;53405;57.012;40.984;2022-09-12T03:57:21;100574.53;;;7.81;76.64
59391;BME280;53405;57.012;40.984;2022-09-12T04:00:11;100577.28;;;7.79;77.35
59391;BME280;53405;57.012;40.984;2022-09-12T04:03:01;100568.72;;;7.77;76.84
59391;BME280;53405;57.012;40.984;2022-09-12T04:05:49;100573.97;;;7.77;76.48
59391;BME280;53405;57.012;40.984;2022-09-12T04:08:37;100578.41;;;7.76;76.41
59391;BME280;53405;57.012;40.984;2022-09-12T04:11:24;100579.06;;;7.78;76.65
59391;BME280;53405;57.012;40.984;2022-09-12T04:14:12;100590.72;;;7.94;76.84
59391;BME280;53405;57.012;40.984;2022-09-12T04:17:00;100598.03;;;8.00;76.12
59391;BME280;53405;57.012;40.984;2022-09-12T04:19:48;100589.19;;;8.01;76.10
59391;BME280;53405;57.012;40.984;2022-09-12T04:22:35;100581.25;;;8.11;76.05
59391;BME280;53405;57.012;40.984;2022-09-12T04:25:24;100603.00;;;8.21;75.45
59391;BME280;53405;57.012;40.984;2022-09-12T04:28:14;100604.50;;;8.24;75.70
59391;BME280;53405;57.012;40.984;2022-09-12T04:31:04;100597.47;;;8.24;75.57
59391;BME280;53405;57.012;40.984;2022-09-12T04:33:57;100615.31;;;8.39;75.51
59391;BME280;53405;57.012;40.984;2022-09-12T04:36:45;100603.28;;;8.46;74.61
59391;BME280;53405;57.012;40.984;2022-09-12T04:39:33;100609.06;;;8.49;73.42
59391;BME280;53405;57.012;40.984;2022-09-12T04:42:20;100611.94;;;8.56;73.58
59391;BME280;53405;57.012;40.984;2022-09-12T04:45:08;100612.16;;;8.63;73.40
59391;BME280;53405;57.012;40.984;2022-09-12T04:47:56;100613.59;;;8.75;73.00
59391;BME280;53405;57.012;40.984;2022-09-12T04:50:43;100587.22;;;8.67;72.14
59391;BME280;53405;57.012;40.984;2022-09-12T04:53:32;100613.66;;;8.83;72.07
59391;BME280;53405;57.012;40.984;2022-09-12T04:56:20;100610.41;;;8.90;72.35
59391;BME280;53405;57.012;40.984;2022-09-12T04:59:09;100592.78;;;8.82;72.58
59391;BME280;53405;57.012;40.984;2022-09-12T05:02:03;100609.56;;;9.07;72.60
59391;BME280;53405;57.012;40.984;2022-09-12T05:04:50;100613.06;;;9.16;70.87
59391;BME280;53405;57.012;40.984;2022-09-12T05:07:42;100606.38;;;9.21;71.21
59391;BME280;53405;57.012;40.984;2022-09-12T05:10:30;100608.59;;;9.34;70.63
59391;BME280;53405;57.012;40.984;2022-09-12T05:13:18;100614.59;;;9.45;71.26
59391;BME280;53405;57.012;40.984;2022-09-12T05:16:07;100611.34;;;9.51;70.53
59391;BME280;53405;57.012;40.984;2022-09-12T05:18:59;100608.09;;;9.57;69.74
59391;BME280;53405;57.012;40.984;2022-09-12T05:21:50;100607.09;;;9.58;69.02
59391;BME280;53405;57.012;40.984;2022-09-12T05:24:38;100611.72;;;9.64;68.97
59391;BME280;53405;57.012;40.984;2022-09-12T05:27:30;100626.09;;;9.78;69.09
59391;BME280;53405;57.012;40.984;2022-09-12T05:30:24;100628.44;;;9.89;68.22
59391;BME280;53405;57.012;40.984;2022-09-12T05:33:14;100624.53;;;9.93;67.48
59391;BME280;53405;57.012;40.984;2022-09-12T05:36:10;100603.94;;;9.81;67.45
59391;BME280;53405;57.012;40.984;2022-09-12T05:38:59;100618.75;;;9.90;67.49
59391;BME280;53405;57.012;40.984;2022-09-12T05:42:25;100618.66;;;10.00;68.23
59391;BME280;53405;57.012;40.984;2022-09-12T05:45:16;100622.78;;;10.10;67.63
59391;BME280;53405;57.012;40.984;2022-09-12T05:48:04;100613.72;;;10.05;67.33
59391;BME280;53405;57.012;40.984;2022-09-12T05:51:05;100564.63;;;9.79;68.86
59391;BME280;53405;57.012;40.984;2022-09-12T05:53:59;100606.66;;;10.13;66.90
59391;BME280;53405;57.012;40.984;2022-09-12T05:58:15;100616.97;;;10.33;67.15
59391;BME280;53405;57.012;40.984;2022-09-12T06:01:29;100617.16;;;10.48;66.90
59391;BME280;53405;57.012;40.984;2022-09-12T06:05:31;100578.44;;;10.40;65.41
59391;BME280;53405;57.012;40.984;2022-09-12T06:09:00;100595.75;;;10.59;64.53
59391;BME280;53405;57.012;40.984;2022-09-12T06:12:07;100624.75;;;10.84;65.16
59391;BME280;53405;57.012;40.984;2022-09-12T06:15:05;100626.25;;;10.95;68.22
59391;BME280;53405;57.012;40.984;2022-09-12T06:17:53;100616.53;;;10.95;66.24
59391;BME280;53405;57.012;40.984;2022-09-12T06:20:42;100616.03;;;11.16;63.99
59391;BME280;53405;57.012;40.984;2022-09-12T06:23:41;100625.22;;;11.29;63.63
59391;BME280;53405;57.012;40.984;2022-09-12T06:26:29;100624.56;;;11.35;62.85
59391;BME280;53405;57.012;40.984;2022-09-12T06:29:17;100577.31;;;11.09;63.84
59391;BME280;53405;57.012;40.984;2022-09-12T06:32:05;100623.06;;;11.41;65.44
59391;BME280;53405;57.012;40.984;2022-09-12T06:34:53;100621.75;;;11.45;64.77
59391;BME280;53405;57.012;40.984;2022-09-12T06:37:45;100616.47;;;11.53;64.76
59391;BME280;53405;57.012;40.984;2022-09-12T06:40:32;100631.88;;;11.81;63.55
59391;BME280;53405;57.012;40.984;2022-09-12T06:43:20;100608.63;;;11.84;62.68
59391;BME280;53405;57.012;40.984;2022-09-12T06:46:10;100627.66;;;12.11;61.01
59391;BME280;53405;57.012;40.984;2022-09-12T06:49:08;100619.28;;;11.99;64.88
59391;BME280;53405;57.012;40.984;2022-09-12T06:51:56;100630.03;;;12.29;62.41
59391;BME280;53405;57.012;40.984;2022-09-12T06:54:43;100626.38;;;12.38;63.37
59391;BME280;53405;57.012;40.984;2022-09-12T06:57:38;100634.69;;;12.50;63.19
59391;BME280;53405;57.012;40.984;2022-09-12T07:00:26;100634.88;;;12.72;61.05
59391;BME280;53405;57.012;40.984;2022-09-12T07:03:14;100632.34;;;12.78;62.77
59391;BME280;53405;57.012;40.984;2022-09-12T07:06:05;100619.84;;;12.95;61.59
59391;BME280;53405;57.012;40.984;2022-09-12T07:08:59;100620.25;;;13.07;60.00
59391;BME280;53405;57.012;40.984;2022-09-12T07:11:47;100625.47;;;13.15;60.71
59391;BME280;53405;57.012;40.984;2022-09-12T07:14:35;100635.41;;;13.28;61.41
59391;BME280;53405;57.012;40.984;2022-09-12T07:17:22;100619.31;;;13.38;60.07
59391;BME280;53405;57.012;40.984;2022-09-12T07:20:10;100635.56;;;13.65;59.02
59391;BME280;53405;57.012;40.984;2022-09-12T07:22:58;100625.44;;;13.68;57.41
59391;BME280;53405;57.012;40.984;2022-09-12T07:25:57;100634.56;;;13.81;56.11
59391;BME280;53405;57.012;40.984;2022-09-12T07:28:50;100614.13;;;13.89;56.42
59391;BME280;53405;57.012;40.984;2022-09-12T07:31:41;100615.50;;;14.00;56.68
59391;BME280;53405;57.012;40.984;2022-09-12T07:34:28;100620.31;;;14.12;54.57
59391;BME280;53405;57.012;40.984;2022-09-12T07:37:16;100613.22;;;14.19;52.80
59391;BME280;53405;57.012;40.984;2022-09-12T07:40:04;100626.97;;;14.44;50.17
59391;BME280;53405;57.012;40.984;2022-09-12T07:42:52;100632.22;;;14.59;50.65
59391;BME280;53405;57.012;40.984;2022-09-12T07:45:39;100624.47;;;14.57;52.05
59391;BME280;53405;57.012;40.984;2022-09-12T07:48:29;100620.19;;;14.78;50.38
59391;BME280;53405;57.012;40.984;2022-09-12T07:51:17;100637.75;;;14.79;51.49
59391;BME280;53405;57.012;40.984;2022-09-12T07:54:08;100625.41;;;14.93;50.28
59391;BME280;53405;57.012;40.984;2022-09-12T07:56:56;100623.59;;;14.93;50.65
59391;BME280;53405;57.012;40.984;2022-09-12T07:59:43;100625.72;;;15.05;49.60
59391;BME280;53405;57.012;40.984;2022-09-12T08:02:39;100626.56;;;15.33;46.75
59391;BME280;53405;57.012;40.984;2022-09-12T08:05:27;100626.00;;;15.45;49.02
59391;BME280;53405;57.012;40.984;2022-09-12T08:08:16;100626.50;;;15.55;48.57
59391;BME280;53405;57.012;40.984;2022-09-12T08:11:06;100616.72;;;15.62;45.60
59391;BME280;53405;57.012;40.984;2022-09-12T08:13:55;100619.72;;;15.81;45.32
59391;BME280;53405;57.012;40.984;2022-09-12T08:16:43;100619.19;;;15.99;43.75
59391;BME280;53405;57.012;40.984;2022-09-12T08:19:32;100613.53;;;16.29;44.77
59391;BME280;53405;57.012;40.984;2022-09-12T08:22:19;100617.91;;;16.56;42.19
59391;BME280;53405;57.012;40.984;2022-09-12T08:25:08;100621.00;;;16.67;41.51
59391;BME280;53405;57.012;40.984;2022-09-12T08:27:56;100572.09;;;16.61;41.27
59391;BME280;53405;57.012;40.984;2022-09-12T08:30:44;100584.78;;;16.72;41.79
59391;BME280;53405;57.012;40.984;2022-09-12T08:33:32;100624.91;;;16.84;44.27
59391;BME280;53405;57.012;40.984;2022-09-12T08:36:25;100624.72;;;16.99;41.29
59391;BME280;53405;57.012;40.984;2022-09-12T08:39:13;100632.09;;;17.10;41.73
59391;BME280;53405;57.012;40.984;2022-09-12T08:42:03;100603.84;;;16.96;40.93
59391;BME280;53405;57.012;40.984;2022-09-12T08:45:17;100622.44;;;16.69;42.93
59391;BME280;53405;57.012;40.984;2022-09-12T08:48:08;100627.94;;;16.61;41.87
59391;BME280;53405;57.012;40.984;2022-09-12T08:50:57;100626.94;;;16.69;43.08
59391;BME280;53405;57.012;40.984;2022-09-12T08:53:48;100623.03;;;16.58;43.13
59391;BME280;53405;57.012;40.984;2022-09-12T08:56:37;100617.91;;;16.50;42.18
59391;BME280;53405;57.012;40.984;2022-09-12T08:59:26;100627.84;;;16.21;43.33
59391;BME280;53405;57.012;40.984;2022-09-12T09:05:50;100623.16;;;16.30;42.78
59391;BME280;53405;57.012;40.984;2022-09-12T09:12:17;100616.00;;;16.30;43.53
59391;BME280;53405;57.012;40.984;2022-09-12T09:15:42;100631.31;;;16.15;45.79
59391;BME280;53405;57.012;40.984;2022-09-12T09:18:35;100628.88;;;16.26;45.85
59391;BME280;53405;57.012;40.984;2022-09-12T09:21:38;100634.09;;;16.82;41.99
59391;BME280;53405;57.012;40.984;2022-09-12T09:24:33;100612.25;;;16.93;43.29
59391;BME280;53405;57.012;40.984;2022-09-12T09:30:26;100631.66;;;17.47;41.54
59391;BME280;53405;57.012;40.984;2022-09-12T09:33:21;100631.06;;;17.31;42.77
59391;BME280;53405;57.012;40.984;2022-09-12T09:36:22;100629.03;;;17.07;43.67
59391;BME280;53405;57.012;40.984;2022-09-12T09:45:33;100634.34;;;17.27;44.39
59391;BME280;53405;57.012;40.984;2022-09-12T09:48:27;100626.56;;;16.98;44.83
59391;BME280;53405;57.012;40.984;2022-09-12T09:51:21;100615.72;;;16.87;44.83
59391;BME280;53405;57.012;40.984;2022-09-12T09:54:22;100614.25;;;16.51;45.07
59391;BME280;53405;57.012;40.984;2022-09-12T10:00:27;100628.09;;;16.33;45.28
59391;BME280;53405;57.012;40.984;2022-09-12T10:03:29;100616.19;;;16.15;45.74
59391;BME280;53405;57.012;40.984;2022-09-12T10:06:24;100622.09;;;16.17;45.82
59391;BME280;53405;57.012;40.984;2022-09-12T10:12:40;100610.97;;;15.94;46.14
59391;BME280;53405;57.012;40.984;2022-09-12T10:15:27;100624.34;;;16.14;44.85
59391;BME280;53405;57.012;40.984;2022-09-12T10:18:36;100616.59;;;16.19;44.26
59391;BME280;53405;57.012;40.984;2022-09-12T10:21:33;100614.56;;;16.21;43.92
59391;BME280;53405;57.012;40.984;2022-09-12T10:24:29;100624.81;;;16.24;45.26
59391;BME280;53405;57.012;40.984;2022-09-12T10:27:22;100610.25;;;16.20;45.34
59391;BME280;53405;57.012;40.984;2022-09-12T10:33:06;100616.91;;;16.51;43.08
59391;BME280;53405;57.012;40.984;2022-09-12T10:35:58;100617.91;;;16.43;40.76
59391;BME280;53405;57.012;40.984;2022-09-12T10:38:52;100613.53;;;16.29;42.07
59391;BME280;53405;57.012;40.984;2022-09-12T10:41:42;100616.84;;;16.24;41.92
59391;BME280;53405;57.012;40.984;2022-09-12T10:44:32;100617.44;;;16.19;41.63
59391;BME280;53405;57.012;40.984;2022-09-12T10:47:22;100611.44;;;16.04;42.81
59391;BME280;53405;57.012;40.984;2022-09-12T10:56:21;100608.06;;;16.43;40.99
59391;BME280;53405;57.012;40.984;2022-09-12T10:59:29;100610.69;;;16.30;42.91
59391;BME280;53405;57.012;40.984;2022-09-12T11:02:29;100621.78;;;16.54;41.22
59391;BME280;53405;57.012;40.984;2022-09-12T11:14:59;100604.47;;;16.91;42.47
59391;BME280;53405;57.012;40.984;2022-09-12T11:33:51;100589.13;;;17.00;42.54
59391;BME280;53405;57.012;40.984;2022-09-12T11:37:13;100595.88;;;17.03;43.30
59391;BME280;53405;57.012;40.984;2022-09-12T11:43:48;100595.28;;;16.87;41.67
59391;BME280;53405;57.012;40.984;2022-09-12T11:46:39;100582.13;;;16.66;43.00
59391;BME280;53405;57.012;40.984;2022-09-12T11:49:49;100589.88;;;16.40;44.14
59391;BME280;53405;57.012;40.984;2022-09-12T11:52:39;100597.03;;;16.60;42.54
59391;BME280;53405;57.012;40.984;2022-09-12T11:55:32;100569.00;;;16.31;41.05
59391;BME280;53405;57.012;40.984;2022-09-12T11:58:25;100582.84;;;16.13;43.93
59391;BME280;53405;57.012;40.984;2022-09-12T12:01:20;100588.44;;;16.38;42.70
59391;BME280;53405;57.012;40.984;2022-09-12T12:04:11;100590.69;;;16.41;42.59
59391;BME280;53405;57.012;40.984;2022-09-12T12:07:11;100575.53;;;16.35;41.17
59391;BME280;53405;57.012;40.984;2022-09-12T12:09:59;100580.03;;;16.28;40.90
59391;BME280;53405;57.012;40.984;2022-09-12T12:12:47;100564.69;;;16.16;41.13
59391;BME280;53405;57.012;40.984;2022-09-12T12:15:36;100555.06;;;16.08;41.04
59391;BME280;53405;57.012;40.984;2022-09-12T12:18:30;100576.97;;;16.24;41.13
59391;BME280;53405;57.012;40.984;2022-09-12T12:27:44;100574.28;;;16.17;40.85
59391;BME280;53405;57.012;40.984;2022-09-12T12:30:57;100566.09;;;16.05;42.10
59391;BME280;53405;57.012;40.984;2022-09-12T12:36:38;100548.44;;;15.84;42.11
59391;BME280;53405;57.012;40.984;2022-09-12T12:48:15;100563.94;;;15.81;43.05
59391;BME280;53405;57.012;40.984;2022-09-12T12:57:29;100560.19;;;15.68;45.30
59391;BME280;53405;57.012;40.984;2022-09-12T13:03:30;100556.69;;;15.61;44.13
59391;BME280;53405;57.012;40.984;2022-09-12T13:06:42;100561.56;;;15.58;46.08
59391;BME280;53405;57.012;40.984;2022-09-12T13:12:29;100554.84;;;15.62;44.24
59391;BME280;53405;57.012;40.984;2022-09-12T13:18:50;100558.09;;;15.57;45.09
59391;BME280;53405;57.012;40.984;2022-09-12T13:21:38;100553.16;;;15.47;46.50
59391;BME280;53405;57.012;40.984;2022-09-12T13:24:26;100551.28;;;15.41;46.06
59391;BME280;53405;57.012;40.984;2022-09-12T13:27:23;100536.34;;;15.33;45.66
59391;BME280;53405;57.012;40.984;2022-09-12T13:30:14;100553.31;;;15.39;45.13
59391;BME280;53405;57.012;40.984;2022-09-12T13:36:15;100546.53;;;15.30;43.79
59391;BME280;53405;57.012;40.984;2022-09-12T13:39:21;100507.88;;;15.14;43.13
59391;BME280;53405;57.012;40.984;2022-09-12T13:45:27;100541.63;;;15.27;47.20
59391;BME280;53405;57.012;40.984;2022-09-12T13:48:20;100526.09;;;15.24;45.01
59391;BME280;53405;57.012;40.984;2022-09-12T13:51:20;100522.75;;;15.15;44.73
59391;BME280;53405;57.012;40.984;2022-09-12T13:54:15;100520.94;;;15.15;45.16
59391;BME280;53405;57.012;40.984;2022-09-12T13:57:06;100528.03;;;15.08;45.07
59391;BME280;53405;57.012;40.984;2022-09-12T13:59:54;100530.28;;;15.11;44.75
59391;BME280;53405;57.012;40.984;2022-09-12T14:02:44;100528.59;;;15.04;45.23
59391;BME280;53405;57.012;40.984;2022-09-12T14:05:32;100528.53;;;14.90;46.75
59391;BME280;53405;57.012;40.984;2022-09-12T14:08:21;100516.88;;;14.91;44.77
59391;BME280;53405;57.012;40.984;2022-09-12T14:11:11;100515.69;;;14.94;46.30
59391;BME280;53405;57.012;40.984;2022-09-12T14:14:05;100510.59;;;14.92;47.11
59391;BME280;53405;57.012;40.984;2022-09-12T14:20:14;100524.00;;;14.84;46.14
59391;BME280;53405;57.012;40.984;2022-09-12T14:23:17;100515.94;;;14.71;49.21
59391;BME280;53405;57.012;40.984;2022-09-12T14:26:09;100514.94;;;14.72;47.27
59391;BME280;53405;57.012;40.984;2022-09-12T14:28:59;100517.38;;;14.73;46.98
59391;BME280;53405;57.012;40.984;2022-09-12T14:32:22;100521.22;;;14.71;45.85
59391;BME280;53405;57.012;40.984;2022-09-12T14:38:06;100513.41;;;14.41;50.31
59391;BME280;53405;57.012;40.984;2022-09-12T14:41:00;100505.91;;;14.44;48.91
59391;BME280;53405;57.012;40.984;2022-09-12T14:43:51;100511.84;;;14.46;49.70
59391;BME280;53405;57.012;40.984;2022-09-12T14:46:40;100507.28;;;14.40;47.90
59391;BME280;53405;57.012;40.984;2022-09-12T14:49:33;100508.06;;;14.34;48.80
59391;BME280;53405;57.012;40.984;2022-09-12T14:52:27;100515.50;;;14.24;51.26
59391;BME280;53405;57.012;40.984;2022-09-12T14:55:27;100503.22;;;14.16;52.61
59391;BME280;53405;57.012;40.984;2022-09-12T14:58:23;100496.91;;;13.96;52.18
59391;BME280;53405;57.012;40.984;2022-09-12T15:04:00;100507.66;;;14.16;51.96
59391;BME280;53405;57.012;40.984;2022-09-12T15:06:48;100510.81;;;14.04;52.77
59391;BME280;53405;57.012;40.984;2022-09-12T15:09:37;100508.34;;;14.03;53.76
59391;BME280;53405;57.012;40.984;2022-09-12T15:12:26;100506.94;;;14.00;53.83
59391;BME280;53405;57.012;40.984;2022-09-12T15:15:17;100495.88;;;13.97;53.91
59391;BME280;53405;57.012;40.984;2022-09-12T15:18:05;100494.47;;;13.79;54.63
59391;BME280;53405;57.012;40.984;2022-09-12T15:21:01;100502.94;;;13.89;53.87
59391;BME280;53405;57.012;40.984;2022-09-12T15:23:51;100506.06;;;13.78;54.07
59391;BME280;53405;57.012;40.984;2022-09-12T15:26:45;100484.72;;;13.65;53.95
59391;BME280;53405;57.012;40.984;2022-09-12T15:29:37;100496.72;;;13.61;52.57
59391;BME280;53405;57.012;40.984;2022-09-12T15:32:28;100502.81;;;13.61;54.79
59391;BME280;53405;57.012;40.984;2022-09-12T15:35:19;100514.22;;;13.62;52.91
59391;BME280;53405;57.012;40.984;2022-09-12T15:38:08;100509.84;;;13.54;52.41
59391;BME280;53405;57.012;40.984;2022-09-12T15:40:57;100496.72;;;13.31;54.08
59391;BME280;53405;57.012;40.984;2022-09-12T15:43:48;100517.34;;;13.35;55.14
59391;BME280;53405;57.012;40.984;2022-09-12T15:46:40;100520.19;;;13.34;53.44
59391;BME280;53405;57.012;40.984;2022-09-12T15:49:39;100524.06;;;13.23;53.73
59391;BME280;53405;57.012;40.984;2022-09-12T15:52:27;100523.31;;;13.14;54.43
59391;BME280;53405;57.012;40.984;2022-09-12T15:55:24;100531.16;;;13.08;56.11
59391;BME280;53405;57.012;40.984;2022-09-12T15:58:12;100518.66;;;13.01;56.40
59391;BME280;53405;57.012;40.984;2022-09-12T16:01:00;100531.78;;;12.95;57.79
59391;BME280;53405;57.012;40.984;2022-09-12T16:03:48;100526.94;;;12.83;59.40
59391;BME280;53405;57.012;40.984;2022-09-12T16:06:36;100529.06;;;12.88;58.79
59391;BME280;53405;57.012;40.984;2022-09-12T16:09:24;100541.06;;;12.91;58.43
59391;BME280;53405;57.012;40.984;2022-09-12T16:12:12;100531.84;;;12.72;59.52
59391;BME280;53405;57.012;40.984;2022-09-12T16:15:00;100539.22;;;12.76;59.54
59391;BME280;53405;57.012;40.984;2022-09-12T16:17:50;100540.47;;;12.65;60.33
59391;BME280;53405;57.012;40.984;2022-09-12T16:20:38;100537.81;;;12.51;60.16
59391;BME280;53405;57.012;40.984;2022-09-12T16:23:27;100545.81;;;12.34;61.09
59391;BME280;53405;57.012;40.984;2022-09-12T16:26:18;100542.72;;;12.31;62.10
59391;BME280;53405;57.012;40.984;2022-09-12T16:29:08;100537.38;;;12.39;60.61
59391;BME280;53405;57.012;40.984;2022-09-12T16:31:57;100549.94;;;12.37;60.91
59391;BME280;53405;57.012;40.984;2022-09-12T16:34:45;100538.50;;;12.21;60.93
59391;BME280;53405;57.012;40.984;2022-09-12T16:37:33;100540.91;;;12.08;61.86
59391;BME280;53405;57.012;40.984;2022-09-12T16:40:21;100540.72;;;12.09;62.11
59391;BME280;53405;57.012;40.984;2022-09-12T16:43:09;100539.59;;;12.04;62.58
59391;BME280;53405;57.012;40.984;2022-09-12T16:46:24;100543.09;;;11.96;63.81
59391;BME280;53405;57.012;40.984;2022-09-12T16:49:22;100534.84;;;11.99;62.36
59391;BME280;53405;57.012;40.984;2022-09-12T16:52:10;100518.91;;;11.76;63.93
59391;BME280;53405;57.012;40.984;2022-09-12T16:55:02;100543.72;;;11.98;62.55
59391;BME280;53405;57.012;40.984;2022-09-12T16:57:51;100544.47;;;11.92;62.83
59391;BME280;53405;57.012;40.984;2022-09-12T17:00:38;100538.19;;;11.85;62.37
59391;BME280;53405;57.012;40.984;2022-09-12T17:03:26;100533.63;;;11.70;64.67
59391;BME280;53405;57.012;40.984;2022-09-12T17:06:16;100526.38;;;11.72;64.45
59391;BME280;53405;57.012;40.984;2022-09-12T17:09:04;100529.09;;;11.56;64.72
59391;BME280;53405;57.012;40.984;2022-09-12T17:11:52;100535.47;;;11.62;64.99
59391;BME280;53405;57.012;40.984;2022-09-12T17:14:40;100533.00;;;11.60;65.15
59391;BME280;53405;57.012;40.984;2022-09-12T17:17:28;100534.88;;;11.51;65.20
59391;BME280;53405;57.012;40.984;2022-09-12T17:20:15;100536.31;;;11.54;64.48
59391;BME280;53405;57.012;40.984;2022-09-12T17:23:03;100533.75;;;11.37;64.94
59391;BME280;53405;57.012;40.984;2022-09-12T17:25:53;100530.94;;;11.39;64.55
59391;BME280;53405;57.012;40.984;2022-09-12T17:28:42;100525.56;;;11.24;65.42
59391;BME280;53405;57.012;40.984;2022-09-12T17:31:30;100532.31;;;11.18;66.45
59391;BME280;53405;57.012;40.984;2022-09-12T17:34:18;100531.19;;;11.21;65.71
59391;BME280;53405;57.012;40.984;2022-09-12T17:37:06;100528.00;;;11.26;64.88